sensor_id;sensor_type;location;lat;lon;timestamp;P1;durP1;ratioP1;P2;durP2;ratioP2
43142;SDS011;28750;59.842;17.584;2023-09-19T00:00:31;9.90;;;5.03;;
43142;SDS011;28750;59.842;17.584;2023-09-19T00:02:59;14.73;;;5.95;;
43142;SDS011;28750;59.842;17.584;2023-09-19T00:05:29;9.57;;;5.55;;
43142;SDS011;28750;59.842;17.584;2023-09-19T00:08:00;8.18;;;5.13;;
43142;SDS011;28750;59.842;17.584;2023-09-19T00:10:29;12.18;;;5.63;;
43142;SDS011;28750;59.842;17.584;2023-09-19T00:13:00;8.07;;;5.30;;
43142;SDS011;28750;59.842;17.584;2023-09-19T00:15:30;10.35;;;5.25;;
43142;SDS011;28750;59.842;17.584;2023-09-19T00:18:03;10.77;;;5.82;;
43142;SDS011;28750;59.842;17.584;2023-09-19T00:20:31;9.00;;;5.78;;
43142;SDS011;28750;59.842;17.584;2023-09-19T00:23:00;10.55;;;5.53;;
43142;SDS011;28750;59.842;17.584;2023-09-19T00:25:37;9.32;;;5.63;;
43142;SDS011;28750;59.842;17.584;2023-09-19T00:28:04;9.43;;;6.00;;
43142;SDS011;28750;59.842;17.584;2023-09-19T00:30:32;10.60;;;6.25;;
43142;SDS011;28750;59.842;17.584;2023-09-19T00:33:00;11.80;;;6.43;;
43142;SDS011;28750;59.842;17.584;2023-09-19T00:35:31;10.55;;;6.15;;
43142;SDS011;28750;59.842;17.584;2023-09-19T00:37:58;10.05;;;6.97;;
43142;SDS011;28750;59.842;17.584;2023-09-19T00:40:25;11.30;;;6.57;;
43142;SDS011;28750;59.842;17.584;2023-09-19T00:42:53;10.57;;;6.38;;
43142;SDS011;28750;59.842;17.584;2023-09-19T00:45:25;13.30;;;7.05;;
43142;SDS011;28750;59.842;17.584;2023-09-19T00:47:53;13.50;;;6.95;;
43142;SDS011;28750;59.842;17.584;2023-09-19T00:50:22;13.10;;;7.07;;
43142;SDS011;28750;59.842;17.584;2023-09-19T00:52:53;16.13;;;7.38;;
43142;SDS011;28750;59.842;17.584;2023-09-19T00:55:22;14.65;;;7.75;;
43142;SDS011;28750;59.842;17.584;2023-09-19T00:57:51;12.20;;;7.40;;
43142;SDS011;28750;59.842;17.584;2023-09-19T01:00:19;17.58;;;8.60;;
43142;SDS011;28750;59.842;17.584;2023-09-19T01:02:47;11.07;;;7.90;;
43142;SDS011;28750;59.842;17.584;2023-09-19T01:05:14;12.02;;;7.88;;
43142;SDS011;28750;59.842;17.584;2023-09-19T01:07:42;14.70;;;8.30;;
43142;SDS011;28750;59.842;17.584;2023-09-19T01:10:14;11.15;;;8.18;;
43142;SDS011;28750;59.842;17.584;2023-09-19T01:20:57;13.23;;;8.20;;
43142;SDS011;28750;59.842;17.584;2023-09-19T01:32:10;15.00;;;10.02;;
43142;SDS011;28750;59.842;17.584;2023-09-19T01:34:43;12.52;;;9.10;;
43142;SDS011;28750;59.842;17.584;2023-09-19T01:37:18;15.45;;;8.77;;
43142;SDS011;28750;59.842;17.584;2023-09-19T01:39:53;14.77;;;9.13;;
43142;SDS011;28750;59.842;17.584;2023-09-19T01:48:05;17.75;;;10.27;;
43142;SDS011;28750;59.842;17.584;2023-09-19T01:50:59;18.25;;;12.00;;
43142;SDS011;28750;59.842;17.584;2023-09-19T01:59:31;17.35;;;11.65;;
43142;SDS011;28750;59.842;17.584;2023-09-19T02:02:05;14.38;;;11.27;;
43142;SDS011;28750;59.842;17.584;2023-09-19T02:04:34;14.23;;;10.77;;
43142;SDS011;28750;59.842;17.584;2023-09-19T02:07:02;17.02;;;12.95;;
43142;SDS011;28750;59.842;17.584;2023-09-19T02:09:31;14.90;;;10.57;;
43142;SDS011;28750;59.842;17.584;2023-09-19T02:12:01;19.92;;;10.88;;
43142;SDS011;28750;59.842;17.584;2023-09-19T02:14:29;12.52;;;10.63;;
43142;SDS011;28750;59.842;17.584;2023-09-19T02:16:57;15.50;;;11.82;;
43142;SDS011;28750;59.842;17.584;2023-09-19T02:19:25;17.98;;;11.93;;
43142;SDS011;28750;59.842;17.584;2023-09-19T02:21:53;19.38;;;12.68;;
43142;SDS011;28750;59.842;17.584;2023-09-19T02:24:20;18.73;;;12.88;;
43142;SDS011;28750;59.842;17.584;2023-09-19T02:26:52;21.77;;;13.23;;
43142;SDS011;28750;59.842;17.584;2023-09-19T02:29:19;18.70;;;13.35;;
43142;SDS011;28750;59.842;17.584;2023-09-19T02:31:47;17.92;;;12.75;;
43142;SDS011;28750;59.842;17.584;2023-09-19T02:34:14;21.20;;;13.50;;
43142;SDS011;28750;59.842;17.584;2023-09-19T02:36:42;16.90;;;13.13;;
43142;SDS011;28750;59.842;17.584;2023-09-19T02:39:10;19.25;;;14.20;;
43142;SDS011;28750;59.842;17.584;2023-09-19T02:41:37;21.48;;;14.02;;
43142;SDS011;28750;59.842;17.584;2023-09-19T02:44:06;18.83;;;14.10;;
43142;SDS011;28750;59.842;17.584;2023-09-19T02:46:34;17.48;;;15.13;;
43142;SDS011;28750;59.842;17.584;2023-09-19T02:49:02;18.88;;;12.65;;
43142;SDS011;28750;59.842;17.584;2023-09-19T02:51:31;20.75;;;13.93;;
43142;SDS011;28750;59.842;17.584;2023-09-19T02:53:59;19.23;;;14.48;;
43142;SDS011;28750;59.842;17.584;2023-09-19T02:56:28;18.52;;;14.48;;
43142;SDS011;28750;59.842;17.584;2023-09-19T02:58:55;20.85;;;15.18;;
43142;SDS011;28750;59.842;17.584;2023-09-19T03:01:23;22.70;;;13.90;;
43142;SDS011;28750;59.842;17.584;2023-09-19T03:03:50;22.52;;;15.48;;
43142;SDS011;28750;59.842;17.584;2023-09-19T03:06:18;20.63;;;14.15;;
43142;SDS011;28750;59.842;17.584;2023-09-19T03:08:46;18.02;;;14.10;;
43142;SDS011;28750;59.842;17.584;2023-09-19T03:11:14;20.45;;;15.15;;
43142;SDS011;28750;59.842;17.584;2023-09-19T03:13:44;19.88;;;14.75;;
43142;SDS011;28750;59.842;17.584;2023-09-19T03:16:11;22.77;;;16.63;;
43142;SDS011;28750;59.842;17.584;2023-09-19T03:18:40;22.35;;;15.70;;
43142;SDS011;28750;59.842;17.584;2023-09-19T03:21:07;25.20;;;16.98;;
43142;SDS011;28750;59.842;17.584;2023-09-19T03:23:35;23.73;;;17.17;;
43142;SDS011;28750;59.842;17.584;2023-09-19T03:26:03;21.55;;;15.45;;
43142;SDS011;28750;59.842;17.584;2023-09-19T03:28:32;23.77;;;18.38;;
43142;SDS011;28750;59.842;17.584;2023-09-19T03:31:04;22.83;;;17.02;;
43142;SDS011;28750;59.842;17.584;2023-09-19T03:33:32;23.10;;;17.20;;
43142;SDS011;28750;59.842;17.584;2023-09-19T03:36:03;29.70;;;18.75;;
43142;SDS011;28750;59.842;17.584;2023-09-19T03:38:31;27.00;;;18.63;;
43142;SDS011;28750;59.842;17.584;2023-09-19T03:40:59;27.63;;;18.27;;
43142;SDS011;28750;59.842;17.584;2023-09-19T03:43:27;26.45;;;17.35;;
43142;SDS011;28750;59.842;17.584;2023-09-19T03:45:54;26.77;;;18.88;;
43142;SDS011;28750;59.842;17.584;2023-09-19T03:48:21;27.55;;;19.85;;
43142;SDS011;28750;59.842;17.584;2023-09-19T03:50:48;25.17;;;18.63;;
43142;SDS011;28750;59.842;17.584;2023-09-19T03:53:16;29.17;;;20.45;;
43142;SDS011;28750;59.842;17.584;2023-09-19T03:55:44;30.10;;;21.60;;
43142;SDS011;28750;59.842;17.584;2023-09-19T03:58:12;31.30;;;20.85;;
43142;SDS011;28750;59.842;17.584;2023-09-19T04:00:39;28.23;;;20.70;;
43142;SDS011;28750;59.842;17.584;2023-09-19T04:03:07;29.30;;;21.35;;
43142;SDS011;28750;59.842;17.584;2023-09-19T04:05:35;29.88;;;20.63;;
43142;SDS011;28750;59.842;17.584;2023-09-19T04:08:03;24.08;;;20.63;;
43142;SDS011;28750;59.842;17.584;2023-09-19T04:10:30;28.17;;;21.00;;
43142;SDS011;28750;59.842;17.584;2023-09-19T04:12:57;32.65;;;21.17;;
43142;SDS011;28750;59.842;17.584;2023-09-19T04:15:24;29.35;;;20.20;;
43142;SDS011;28750;59.842;17.584;2023-09-19T04:17:52;26.98;;;20.90;;
43142;SDS011;28750;59.842;17.584;2023-09-19T04:20:19;28.25;;;21.80;;
43142;SDS011;28750;59.842;17.584;2023-09-19T04:22:48;30.73;;;22.42;;
43142;SDS011;28750;59.842;17.584;2023-09-19T04:25:15;35.63;;;23.52;;
43142;SDS011;28750;59.842;17.584;2023-09-19T04:27:44;30.88;;;22.13;;
43142;SDS011;28750;59.842;17.584;2023-09-19T04:30:11;30.23;;;21.00;;
43142;SDS011;28750;59.842;17.584;2023-09-19T04:32:40;29.92;;;22.55;;
43142;SDS011;28750;59.842;17.584;2023-09-19T04:35:08;32.47;;;22.92;;
43142;SDS011;28750;59.842;17.584;2023-09-19T04:37:37;32.58;;;23.45;;
43142;SDS011;28750;59.842;17.584;2023-09-19T04:40:06;35.30;;;23.02;;
43142;SDS011;28750;59.842;17.584;2023-09-19T04:42:38;30.65;;;22.23;;
43142;SDS011;28750;59.842;17.584;2023-09-19T04:45:07;32.28;;;23.30;;
43142;SDS011;28750;59.842;17.584;2023-09-19T04:47:36;33.78;;;21.83;;
43142;SDS011;28750;59.842;17.584;2023-09-19T04:50:05;32.65;;;22.58;;
43142;SDS011;28750;59.842;17.584;2023-09-19T04:52:38;32.97;;;21.73;;
43142;SDS011;28750;59.842;17.584;2023-09-19T04:55:12;31.73;;;21.80;;
43142;SDS011;28750;59.842;17.584;2023-09-19T04:57:45;34.42;;;23.88;;
43142;SDS011;28750;59.842;17.584;2023-09-19T05:00:14;30.20;;;22.42;;
43142;SDS011;28750;59.842;17.584;2023-09-19T05:02:44;34.33;;;22.45;;
43142;SDS011;28750;59.842;17.584;2023-09-19T05:05:12;34.33;;;23.50;;
43142;SDS011;28750;59.842;17.584;2023-09-19T05:07:40;30.95;;;24.13;;
43142;SDS011;28750;59.842;17.584;2023-09-19T05:10:08;32.45;;;22.88;;
43142;SDS011;28750;59.842;17.584;2023-09-19T05:12:37;32.47;;;23.20;;
43142;SDS011;28750;59.842;17.584;2023-09-19T05:15:05;29.88;;;22.15;;
43142;SDS011;28750;59.842;17.584;2023-09-19T05:17:33;32.47;;;23.40;;
43142;SDS011;28750;59.842;17.584;2023-09-19T05:20:02;31.95;;;24.58;;
43142;SDS011;28750;59.842;17.584;2023-09-19T05:22:40;35.17;;;24.83;;
43142;SDS011;28750;59.842;17.584;2023-09-19T05:25:11;29.15;;;23.40;;
43142;SDS011;28750;59.842;17.584;2023-09-19T05:27:42;31.63;;;23.07;;
43142;SDS011;28750;59.842;17.584;2023-09-19T05:30:10;33.85;;;23.75;;
43142;SDS011;28750;59.842;17.584;2023-09-19T05:32:39;27.40;;;22.48;;
43142;SDS011;28750;59.842;17.584;2023-09-19T05:35:06;33.88;;;23.15;;
43142;SDS011;28750;59.842;17.584;2023-09-19T05:37:35;33.13;;;23.80;;
43142;SDS011;28750;59.842;17.584;2023-09-19T05:40:03;31.98;;;23.17;;
43142;SDS011;28750;59.842;17.584;2023-09-19T05:42:34;28.60;;;21.70;;
43142;SDS011;28750;59.842;17.584;2023-09-19T05:45:03;35.20;;;24.23;;
43142;SDS011;28750;59.842;17.584;2023-09-19T05:47:31;30.20;;;23.40;;
43142;SDS011;28750;59.842;17.584;2023-09-19T05:49:59;29.88;;;22.85;;
43142;SDS011;28750;59.842;17.584;2023-09-19T05:52:27;33.78;;;22.50;;
43142;SDS011;28750;59.842;17.584;2023-09-19T05:54:55;32.22;;;23.45;;
43142;SDS011;28750;59.842;17.584;2023-09-19T05:57:22;36.53;;;23.60;;
43142;SDS011;28750;59.842;17.584;2023-09-19T05:59:49;34.15;;;23.90;;
43142;SDS011;28750;59.842;17.584;2023-09-19T06:02:17;32.17;;;23.25;;
43142;SDS011;28750;59.842;17.584;2023-09-19T06:04:44;30.92;;;22.30;;
43142;SDS011;28750;59.842;17.584;2023-09-19T06:07:11;29.42;;;23.98;;
43142;SDS011;28750;59.842;17.584;2023-09-19T06:09:40;30.30;;;24.73;;
43142;SDS011;28750;59.842;17.584;2023-09-19T06:12:07;33.67;;;23.65;;
43142;SDS011;28750;59.842;17.584;2023-09-19T06:14:34;35.95;;;25.20;;
43142;SDS011;28750;59.842;17.584;2023-09-19T06:17:01;28.92;;;23.30;;
43142;SDS011;28750;59.842;17.584;2023-09-19T06:19:28;31.05;;;22.95;;
43142;SDS011;28750;59.842;17.584;2023-09-19T06:21:56;26.40;;;19.02;;
43142;SDS011;28750;59.842;17.584;2023-09-19T06:24:24;34.85;;;24.45;;
43142;SDS011;28750;59.842;17.584;2023-09-19T06:26:52;31.83;;;28.38;;
43142;SDS011;28750;59.842;17.584;2023-09-19T06:29:20;27.58;;;22.88;;
43142;SDS011;28750;59.842;17.584;2023-09-19T06:31:48;29.25;;;22.90;;
43142;SDS011;28750;59.842;17.584;2023-09-19T06:34:16;29.08;;;23.65;;
43142;SDS011;28750;59.842;17.584;2023-09-19T06:36:43;33.03;;;24.85;;
43142;SDS011;28750;59.842;17.584;2023-09-19T06:39:11;28.33;;;21.73;;
43142;SDS011;28750;59.842;17.584;2023-09-19T06:41:38;30.67;;;22.05;;
43142;SDS011;28750;59.842;17.584;2023-09-19T06:44:06;25.77;;;21.45;;
43142;SDS011;28750;59.842;17.584;2023-09-19T06:46:34;29.67;;;23.27;;
43142;SDS011;28750;59.842;17.584;2023-09-19T06:49:04;28.70;;;21.35;;
43142;SDS011;28750;59.842;17.584;2023-09-19T06:51:32;31.20;;;21.33;;
43142;SDS011;28750;59.842;17.584;2023-09-19T06:54:01;31.92;;;22.58;;
43142;SDS011;28750;59.842;17.584;2023-09-19T06:56:30;27.85;;;21.63;;
43142;SDS011;28750;59.842;17.584;2023-09-19T06:58:58;35.63;;;23.10;;
43142;SDS011;28750;59.842;17.584;2023-09-19T07:01:25;26.08;;;22.40;;
43142;SDS011;28750;59.842;17.584;2023-09-19T07:03:52;26.08;;;22.75;;
43142;SDS011;28750;59.842;17.584;2023-09-19T07:06:20;29.95;;;22.15;;
43142;SDS011;28750;59.842;17.584;2023-09-19T07:08:47;28.48;;;23.08;;
43142;SDS011;28750;59.842;17.584;2023-09-19T07:11:15;30.65;;;23.10;;
43142;SDS011;28750;59.842;17.584;2023-09-19T07:13:42;28.50;;;21.85;;
43142;SDS011;28750;59.842;17.584;2023-09-19T07:16:10;27.60;;;19.88;;
43142;SDS011;28750;59.842;17.584;2023-09-19T07:18:44;27.33;;;21.08;;
43142;SDS011;28750;59.842;17.584;2023-09-19T07:21:11;26.98;;;21.23;;
43142;SDS011;28750;59.842;17.584;2023-09-19T07:23:40;30.15;;;23.50;;
43142;SDS011;28750;59.842;17.584;2023-09-19T07:26:07;30.20;;;20.88;;
43142;SDS011;28750;59.842;17.584;2023-09-19T07:28:35;30.50;;;22.92;;
43142;SDS011;28750;59.842;17.584;2023-09-19T07:31:02;28.23;;;21.60;;
43142;SDS011;28750;59.842;17.584;2023-09-19T07:33:30;27.63;;;21.52;;
43142;SDS011;28750;59.842;17.584;2023-09-19T07:35:57;29.55;;;22.38;;
43142;SDS011;28750;59.842;17.584;2023-09-19T07:38:24;30.63;;;21.63;;
43142;SDS011;28750;59.842;17.584;2023-09-19T07:40:52;24.50;;;20.55;;
43142;SDS011;28750;59.842;17.584;2023-09-19T07:43:20;25.58;;;20.67;;
43142;SDS011;28750;59.842;17.584;2023-09-19T07:45:47;29.08;;;20.65;;
43142;SDS011;28750;59.842;17.584;2023-09-19T07:48:14;25.40;;;20.00;;
43142;SDS011;28750;59.842;17.584;2023-09-19T07:50:41;22.92;;;20.48;;
43142;SDS011;28750;59.842;17.584;2023-09-19T07:53:09;25.50;;;20.02;;
43142;SDS011;28750;59.842;17.584;2023-09-19T07:55:38;25.75;;;19.88;;
43142;SDS011;28750;59.842;17.584;2023-09-19T07:58:06;29.05;;;21.13;;
43142;SDS011;28750;59.842;17.584;2023-09-19T08:00:33;35.55;;;21.10;;
43142;SDS011;28750;59.842;17.584;2023-09-19T08:03:00;25.75;;;19.77;;
43142;SDS011;28750;59.842;17.584;2023-09-19T08:05:29;26.55;;;20.48;;
43142;SDS011;28750;59.842;17.584;2023-09-19T08:07:56;28.23;;;21.13;;
43142;SDS011;28750;59.842;17.584;2023-09-19T08:10:24;23.17;;;19.50;;
43142;SDS011;28750;59.842;17.584;2023-09-19T08:12:52;22.92;;;19.23;;
43142;SDS011;28750;59.842;17.584;2023-09-19T08:15:23;27.75;;;18.33;;
43142;SDS011;28750;59.842;17.584;2023-09-19T08:17:50;25.65;;;19.58;;
43142;SDS011;28750;59.842;17.584;2023-09-19T08:20:18;26.60;;;19.98;;
43142;SDS011;28750;59.842;17.584;2023-09-19T08:22:48;25.35;;;19.13;;
43142;SDS011;28750;59.842;17.584;2023-09-19T08:25:17;25.52;;;19.83;;
43142;SDS011;28750;59.842;17.584;2023-09-19T08:27:46;28.17;;;19.13;;
43142;SDS011;28750;59.842;17.584;2023-09-19T08:30:15;21.75;;;18.42;;
43142;SDS011;28750;59.842;17.584;2023-09-19T08:32:45;23.50;;;17.30;;
43142;SDS011;28750;59.842;17.584;2023-09-19T08:35:13;24.40;;;17.90;;
43142;SDS011;28750;59.842;17.584;2023-09-19T08:37:40;23.45;;;18.15;;
43142;SDS011;28750;59.842;17.584;2023-09-19T08:40:10;28.23;;;20.45;;
43142;SDS011;28750;59.842;17.584;2023-09-19T08:42:48;21.05;;;18.52;;
43142;SDS011;28750;59.842;17.584;2023-09-19T08:45:20;26.58;;;17.92;;
43142;SDS011;28750;59.842;17.584;2023-09-19T08:50:59;24.45;;;18.48;;
43142;SDS011;28750;59.842;17.584;2023-09-19T08:54:35;21.48;;;17.63;;
43142;SDS011;28750;59.842;17.584;2023-09-19T08:56:35;26.33;;;17.88;;
43142;SDS011;28750;59.842;17.584;2023-09-19T08:59:05;19.95;;;15.43;;
43142;SDS011;28750;59.842;17.584;2023-09-19T09:01:33;19.13;;;15.40;;
43142;SDS011;28750;59.842;17.584;2023-09-19T09:04:01;19.50;;;15.90;;
43142;SDS011;28750;59.842;17.584;2023-09-19T09:06:29;19.70;;;15.02;;
43142;SDS011;28750;59.842;17.584;2023-09-19T09:08:57;19.77;;;15.02;;
43142;SDS011;28750;59.842;17.584;2023-09-19T09:11:25;20.33;;;13.50;;
43142;SDS011;28750;59.842;17.584;2023-09-19T09:13:53;17.23;;;13.63;;
43142;SDS011;28750;59.842;17.584;2023-09-19T09:16:21;16.10;;;13.50;;
43142;SDS011;28750;59.842;17.584;2023-09-19T09:18:51;24.58;;;13.60;;
43142;SDS011;28750;59.842;17.584;2023-09-19T09:21:20;17.40;;;13.60;;
43142;SDS011;28750;59.842;17.584;2023-09-19T09:23:50;16.20;;;13.23;;
43142;SDS011;28750;59.842;17.584;2023-09-19T09:29:07;17.33;;;12.38;;
43142;SDS011;28750;59.842;17.584;2023-09-19T09:31:34;20.73;;;12.82;;
43142;SDS011;28750;59.842;17.584;2023-09-19T09:34:02;19.23;;;12.38;;
43142;SDS011;28750;59.842;17.584;2023-09-19T09:36:38;18.77;;;12.57;;
43142;SDS011;28750;59.842;17.584;2023-09-19T09:39:06;14.80;;;11.75;;
43142;SDS011;28750;59.842;17.584;2023-09-19T09:41:43;17.42;;;11.43;;
43142;SDS011;28750;59.842;17.584;2023-09-19T09:44:15;12.00;;;10.85;;
43142;SDS011;28750;59.842;17.584;2023-09-19T09:46:44;12.13;;;10.60;;
43142;SDS011;28750;59.842;17.584;2023-09-19T09:49:47;14.87;;;11.07;;
43142;SDS011;28750;59.842;17.584;2023-09-19T09:52:19;14.50;;;10.30;;
43142;SDS011;28750;59.842;17.584;2023-09-19T09:54:58;11.47;;;10.27;;
43142;SDS011;28750;59.842;17.584;2023-09-19T09:57:30;13.18;;;10.23;;
43142;SDS011;28750;59.842;17.584;2023-09-19T09:59:59;11.82;;;9.00;;
43142;SDS011;28750;59.842;17.584;2023-09-19T10:02:44;11.85;;;9.48;;
43142;SDS011;28750;59.842;17.584;2023-09-19T10:05:12;13.75;;;9.48;;
43142;SDS011;28750;59.842;17.584;2023-09-19T10:07:53;12.30;;;9.23;;
43142;SDS011;28750;59.842;17.584;2023-09-19T10:10:39;10.85;;;8.90;;
43142;SDS011;28750;59.842;17.584;2023-09-19T10:13:18;13.95;;;9.45;;
43142;SDS011;28750;59.842;17.584;2023-09-19T10:15:49;12.93;;;8.93;;
43142;SDS011;28750;59.842;17.584;2023-09-19T10:18:20;11.57;;;7.95;;
43142;SDS011;28750;59.842;17.584;2023-09-19T10:20:49;8.63;;;7.70;;
43142;SDS011;28750;59.842;17.584;2023-09-19T10:23:17;11.02;;;8.40;;
43142;SDS011;28750;59.842;17.584;2023-09-19T10:25:48;9.20;;;8.10;;
43142;SDS011;28750;59.842;17.584;2023-09-19T10:28:17;11.80;;;7.90;;
43142;SDS011;28750;59.842;17.584;2023-09-19T10:30:50;11.50;;;7.00;;
43142;SDS011;28750;59.842;17.584;2023-09-19T10:33:19;8.45;;;7.15;;
43142;SDS011;28750;59.842;17.584;2023-09-19T10:35:50;8.02;;;6.50;;
43142;SDS011;28750;59.842;17.584;2023-09-19T10:38:19;12.32;;;6.57;;
43142;SDS011;28750;59.842;17.584;2023-09-19T10:43:21;9.75;;;5.20;;
43142;SDS011;28750;59.842;17.584;2023-09-19T10:45:52;8.32;;;6.03;;
43142;SDS011;28750;59.842;17.584;2023-09-19T10:48:23;5.95;;;5.20;;
43142;SDS011;28750;59.842;17.584;2023-09-19T10:51:06;5.07;;;4.50;;
43142;SDS011;28750;59.842;17.584;2023-09-19T10:53:43;6.47;;;3.97;;
43142;SDS011;28750;59.842;17.584;2023-09-19T10:56:30;5.05;;;4.20;;
43142;SDS011;28750;59.842;17.584;2023-09-19T10:59:16;15.52;;;5.55;;
43142;SDS011;28750;59.842;17.584;2023-09-19T11:01:46;6.22;;;4.47;;
43142;SDS011;28750;59.842;17.584;2023-09-19T11:07:08;5.10;;;3.97;;
43142;SDS011;28750;59.842;17.584;2023-09-19T11:09:47;5.60;;;4.05;;
43142;SDS011;28750;59.842;17.584;2023-09-19T11:14:58;6.72;;;3.08;;
43142;SDS011;28750;59.842;17.584;2023-09-19T11:17:35;5.63;;;3.10;;
43142;SDS011;28750;59.842;17.584;2023-09-19T11:30:38;3.42;;;2.13;;
43142;SDS011;28750;59.842;17.584;2023-09-19T11:33:17;7.03;;;2.00;;
43142;SDS011;28750;59.842;17.584;2023-09-19T11:36:03;8.68;;;1.90;;
43142;SDS011;28750;59.842;17.584;2023-09-19T11:43:52;3.42;;;1.70;;
43142;SDS011;28750;59.842;17.584;2023-09-19T11:49:18;3.08;;;1.70;;
43142;SDS011;28750;59.842;17.584;2023-09-19T11:51:55;3.13;;;1.63;;
43142;SDS011;28750;59.842;17.584;2023-09-19T11:54:22;3.85;;;1.80;;
43142;SDS011;28750;59.842;17.584;2023-09-19T11:56:54;6.05;;;1.83;;
43142;SDS011;28750;59.842;17.584;2023-09-19T12:01:56;3.10;;;1.92;;
43142;SDS011;28750;59.842;17.584;2023-09-19T12:04:33;2.58;;;1.23;;
43142;SDS011;28750;59.842;17.584;2023-09-19T12:07:12;2.72;;;1.45;;
43142;SDS011;28750;59.842;17.584;2023-09-19T12:09:50;2.78;;;1.25;;
43142;SDS011;28750;59.842;17.584;2023-09-19T12:12:31;3.92;;;1.95;;
43142;SDS011;28750;59.842;17.584;2023-09-19T12:14:58;2.40;;;1.38;;
43142;SDS011;28750;59.842;17.584;2023-09-19T12:17:35;2.25;;;1.65;;
43142;SDS011;28750;59.842;17.584;2023-09-19T12:20:04;4.95;;;1.40;;
43142;SDS011;28750;59.842;17.584;2023-09-19T12:22:40;3.80;;;1.30;;
43142;SDS011;28750;59.842;17.584;2023-09-19T12:25:09;4.13;;;1.25;;
43142;SDS011;28750;59.842;17.584;2023-09-19T12:27:46;9.60;;;1.85;;
43142;SDS011;28750;59.842;17.584;2023-09-19T12:30:14;3.80;;;1.48;;
43142;SDS011;28750;59.842;17.584;2023-09-19T12:32:44;4.20;;;1.33;;
43142;SDS011;28750;59.842;17.584;2023-09-19T12:35:29;5.93;;;1.50;;
43142;SDS011;28750;59.842;17.584;2023-09-19T12:37:59;5.03;;;1.70;;
43142;SDS011;28750;59.842;17.584;2023-09-19T12:40:28;1.65;;;1.15;;
43142;SDS011;28750;59.842;17.584;2023-09-19T12:42:58;1.50;;;1.27;;
43142;SDS011;28750;59.842;17.584;2023-09-19T12:45:27;1.40;;;1.20;;
43142;SDS011;28750;59.842;17.584;2023-09-19T12:53:39;3.92;;;1.20;;
43142;SDS011;28750;59.842;17.584;2023-09-19T12:56:11;5.68;;;1.55;;
43142;SDS011;28750;59.842;17.584;2023-09-19T12:58:55;3.75;;;1.13;;
43142;SDS011;28750;59.842;17.584;2023-09-19T13:01:28;2.75;;;1.35;;
43142;SDS011;28750;59.842;17.584;2023-09-19T13:06:51;2.78;;;1.60;;
43142;SDS011;28750;59.842;17.584;2023-09-19T13:09:20;5.63;;;1.67;;
43142;SDS011;28750;59.842;17.584;2023-09-19T13:11:50;2.53;;;1.40;;
43142;SDS011;28750;59.842;17.584;2023-09-19T13:14:25;2.42;;;1.40;;
43142;SDS011;28750;59.842;17.584;2023-09-19T13:16:57;2.70;;;1.65;;
43142;SDS011;28750;59.842;17.584;2023-09-19T13:19:40;4.07;;;1.90;;
43142;SDS011;28750;59.842;17.584;2023-09-19T13:25:15;2.80;;;1.70;;
43142;SDS011;28750;59.842;17.584;2023-09-19T13:27:44;9.65;;;2.15;;
43142;SDS011;28750;59.842;17.584;2023-09-19T13:30:16;6.22;;;1.98;;
43142;SDS011;28750;59.842;17.584;2023-09-19T13:32:45;3.22;;;1.90;;
43142;SDS011;28750;59.842;17.584;2023-09-19T13:35:12;2.42;;;1.45;;
43142;SDS011;28750;59.842;17.584;2023-09-19T13:37:41;7.03;;;1.88;;
43142;SDS011;28750;59.842;17.584;2023-09-19T13:42:39;5.50;;;1.80;;
43142;SDS011;28750;59.842;17.584;2023-09-19T13:45:07;6.70;;;1.85;;
43142;SDS011;28750;59.842;17.584;2023-09-19T13:47:37;4.43;;;1.50;;
43142;SDS011;28750;59.842;17.584;2023-09-19T13:50:04;4.10;;;1.80;;
43142;SDS011;28750;59.842;17.584;2023-09-19T13:52:33;2.83;;;1.65;;
43142;SDS011;28750;59.842;17.584;2023-09-19T13:55:00;5.60;;;1.88;;
43142;SDS011;28750;59.842;17.584;2023-09-19T13:57:27;8.38;;;2.00;;
43142;SDS011;28750;59.842;17.584;2023-09-19T13:59:54;5.85;;;1.83;;
43142;SDS011;28750;59.842;17.584;2023-09-19T14:02:22;3.33;;;1.52;;
43142;SDS011;28750;59.842;17.584;2023-09-19T14:04:50;5.65;;;2.17;;
43142;SDS011;28750;59.842;17.584;2023-09-19T14:07:18;4.50;;;1.70;;
43142;SDS011;28750;59.842;17.584;2023-09-19T14:09:45;3.35;;;1.33;;
43142;SDS011;28750;59.842;17.584;2023-09-19T14:12:13;5.97;;;2.42;;
43142;SDS011;28750;59.842;17.584;2023-09-19T14:14:41;6.50;;;1.40;;
43142;SDS011;28750;59.842;17.584;2023-09-19T14:17:10;7.38;;;1.63;;
43142;SDS011;28750;59.842;17.584;2023-09-19T14:19:40;6.28;;;1.80;;
43142;SDS011;28750;59.842;17.584;2023-09-19T14:22:09;2.55;;;1.35;;
43142;SDS011;28750;59.842;17.584;2023-09-19T14:24:36;2.58;;;1.30;;
43142;SDS011;28750;59.842;17.584;2023-09-19T14:27:06;4.60;;;1.48;;
43142;SDS011;28750;59.842;17.584;2023-09-19T14:29:34;2.72;;;1.48;;
43142;SDS011;28750;59.842;17.584;2023-09-19T14:32:01;6.03;;;1.55;;
43142;SDS011;28750;59.842;17.584;2023-09-19T14:34:29;5.15;;;1.33;;
43142;SDS011;28750;59.842;17.584;2023-09-19T14:36:56;3.80;;;2.10;;
43142;SDS011;28750;59.842;17.584;2023-09-19T14:39:23;7.65;;;1.60;;
43142;SDS011;28750;59.842;17.584;2023-09-19T14:41:50;3.78;;;1.45;;
43142;SDS011;28750;59.842;17.584;2023-09-19T14:44:18;3.25;;;1.67;;
43142;SDS011;28750;59.842;17.584;2023-09-19T14:46:45;5.35;;;2.13;;
43142;SDS011;28750;59.842;17.584;2023-09-19T14:49:12;4.43;;;1.75;;
43142;SDS011;28750;59.842;17.584;2023-09-19T14:51:42;4.45;;;1.52;;
43142;SDS011;28750;59.842;17.584;2023-09-19T14:54:09;3.40;;;1.27;;
43142;SDS011;28750;59.842;17.584;2023-09-19T14:56:36;4.18;;;1.17;;
43142;SDS011;28750;59.842;17.584;2023-09-19T14:59:04;5.18;;;1.30;;
43142;SDS011;28750;59.842;17.584;2023-09-19T15:01:32;3.78;;;1.48;;
43142;SDS011;28750;59.842;17.584;2023-09-19T15:03:59;2.83;;;1.20;;
43142;SDS011;28750;59.842;17.584;2023-09-19T15:06:26;3.72;;;1.25;;
43142;SDS011;28750;59.842;17.584;2023-09-19T15:08:53;4.38;;;1.30;;
43142;SDS011;28750;59.842;17.584;2023-09-19T15:11:20;3.50;;;1.20;;
43142;SDS011;28750;59.842;17.584;2023-09-19T15:13:50;5.97;;;1.33;;
43142;SDS011;28750;59.842;17.584;2023-09-19T15:16:18;16.73;;;1.20;;
43142;SDS011;28750;59.842;17.584;2023-09-19T15:18:46;1.90;;;1.02;;
43142;SDS011;28750;59.842;17.584;2023-09-19T15:21:13;3.35;;;1.30;;
43142;SDS011;28750;59.842;17.584;2023-09-19T15:23:41;5.70;;;1.73;;
43142;SDS011;28750;59.842;17.584;2023-09-19T15:26:11;2.65;;;1.33;;
43142;SDS011;28750;59.842;17.584;2023-09-19T15:28:42;3.88;;;1.30;;
43142;SDS011;28750;59.842;17.584;2023-09-19T15:31:11;1.98;;;1.40;;
43142;SDS011;28750;59.842;17.584;2023-09-19T15:33:39;5.85;;;1.60;;
43142;SDS011;28750;59.842;17.584;2023-09-19T15:36:10;3.97;;;1.55;;
43142;SDS011;28750;59.842;17.584;2023-09-19T15:41:34;4.05;;;1.67;;
43142;SDS011;28750;59.842;17.584;2023-09-19T15:44:03;7.25;;;1.60;;
43142;SDS011;28750;59.842;17.584;2023-09-19T15:46:32;6.40;;;1.13;;
43142;SDS011;28750;59.842;17.584;2023-09-19T15:49:00;2.45;;;1.58;;
43142;SDS011;28750;59.842;17.584;2023-09-19T15:51:28;4.85;;;1.60;;
43142;SDS011;28750;59.842;17.584;2023-09-19T15:53:56;7.38;;;1.40;;